createdAt,value
2018-06-23T00:00:02.380Z,13.8
2018-06-23T00:15:02.670Z,13.8
2018-06-23T00:30:03.136Z,13.8
2018-06-23T00:45:02.466Z,13.8
2018-06-23T01:00:02.801Z,13.7
2018-06-23T01:15:03.105Z,13.7
2018-06-23T01:30:02.530Z,13.6
2018-06-23T01:45:02.872Z,13.6
2018-06-23T02:00:03.212Z,13.6
2018-06-23T02:15:02.661Z,13.6
2018-06-23T02:30:03.092Z,13.5
2018-06-23T02:45:02.390Z,13.5
2018-06-23T03:00:02.680Z,13.4
2018-06-23T03:15:03.011Z,13.4
2018-06-23T03:30:02.449Z,13.4
2018-06-23T03:45:02.786Z,13.4
2018-06-23T04:00:03.118Z,13.4
2018-06-23T04:15:02.450Z,13.4
2018-06-23T04:30:02.857Z,13.3
2018-06-23T04:45:03.229Z,13.3
2018-06-23T05:00:02.582Z,13.3
2018-06-23T05:15:02.880Z,13.3
2018-06-23T05:30:02.255Z,13.3
2018-06-23T05:45:02.568Z,13.3
2018-06-23T06:00:02.879Z,13.3
2018-06-23T06:15:03.222Z,13.4
2018-06-23T06:30:02.670Z,13.4
2018-06-23T06:45:03.067Z,13.4
2018-06-23T07:00:02.389Z,13.4
2018-06-23T07:15:02.680Z,13.4
2018-06-23T07:30:03.101Z,13.5
2018-06-23T07:45:02.392Z,13.6
2018-06-23T08:00:02.696Z,13.6
2018-06-23T08:15:03.012Z,13.6
2018-06-23T08:30:02.575Z,13.7
2018-06-23T08:45:03.074Z,13.7
2018-06-23T09:00:02.499Z,13.8
2018-06-23T09:15:02.978Z,13.9
2018-06-23T09:30:02.489Z,13.9
2018-06-23T09:45:02.785Z,14
2018-06-23T10:00:03.118Z,14.1
2018-06-23T10:15:02.388Z,14.1
2018-06-23T10:30:02.843Z,14.1
2018-06-23T10:45:03.198Z,14.1
2018-06-23T11:00:02.492Z,14.1
2018-06-23T11:15:02.832Z,14.1
2018-06-23T11:30:03.315Z,14.2
2018-06-23T11:45:02.648Z,14.2
2018-06-23T12:00:03.163Z,14.2
2018-06-23T12:15:02.537Z,14.2
2018-06-23T12:30:02.972Z,14.2
2018-06-23T12:45:02.264Z,14.2
2018-06-23T13:00:02.598Z,14.3
2018-06-23T13:15:02.960Z,14.3
2018-06-23T13:30:02.398Z,14.4
2018-06-23T13:45:02.672Z,14.4
2018-06-23T14:00:02.970Z,14.4
2018-06-23T14:15:02.303Z,14.4
2018-06-23T14:30:02.700Z,14.4
2018-06-23T14:45:02.993Z,14.4
2018-06-23T15:00:02.296Z,14.4
2018-06-23T15:15:02.951Z,14.3
2018-06-23T15:30:02.447Z,14.4
2018-06-23T15:45:02.763Z,14.3
2018-06-23T16:00:03.094Z,14.3
2018-06-23T16:15:02.447Z,14.3
2018-06-23T16:30:03.112Z,14.3
2018-06-23T16:45:02.529Z,14.2
2018-06-23T17:00:02.960Z,14.2
2018-06-23T17:15:02.285Z,14.2
2018-06-23T17:30:02.677Z,14.2
2018-06-23T17:45:02.983Z,14.2
2018-06-23T18:00:02.333Z,14.1
2018-06-23T18:15:02.667Z,14.1
2018-06-23T18:30:03.107Z,14.1
2018-06-23T18:45:02.469Z,14.1
2018-06-23T19:00:02.770Z,14.1
2018-06-23T19:15:03.117Z,14
2018-06-23T19:30:02.586Z,14
2018-06-23T19:45:02.890Z,14
2018-06-23T20:00:03.217Z,13.9
2018-06-23T20:15:02.537Z,13.9
2018-06-23T20:30:02.969Z,13.9
2018-06-23T20:45:02.275Z,13.9
2018-06-23T21:00:02.564Z,13.9
2018-06-23T21:15:02.874Z,13.8
2018-06-23T21:30:02.271Z,13.8
2018-06-23T21:45:02.589Z,13.8
2018-06-23T22:00:02.899Z,13.8
2018-06-23T22:15:03.232Z,13.7
2018-06-23T22:30:02.768Z,13.7
2018-06-23T22:45:03.099Z,13.7
2018-06-23T23:00:02.624Z,13.7
2018-06-23T23:15:03.047Z,13.6
2018-06-23T23:30:02.471Z,13.6
2018-06-23T23:45:02.775Z,13.6
